createdAt,value
2022-11-03T00:01:48.727Z,13.38
2022-11-03T00:06:55.413Z,12.68
2022-11-03T00:11:59.255Z,13.05
2022-11-03T00:17:03.076Z,12.52
2022-11-03T00:22:08.269Z,12.18
2022-11-03T00:27:12.050Z,12.47
2022-11-03T00:32:15.832Z,13.88
2022-11-03T00:37:21.037Z,12.43
2022-11-03T00:42:24.917Z,13.63
2022-11-03T00:47:28.788Z,12.20
2022-11-03T00:52:36.104Z,11.77
2022-11-03T00:57:39.945Z,12.20
2022-11-03T01:02:43.762Z,12.45
2022-11-03T01:07:49.044Z,13.05
2022-11-03T01:12:52.964Z,13.77
2022-11-03T01:17:58.146Z,14.15
2022-11-03T01:23:03.722Z,14.40
2022-11-03T01:28:07.676Z,13.32
2022-11-03T01:33:11.435Z,13.43
2022-11-03T01:38:16.588Z,13.82
2022-11-03T01:43:22.253Z,15.18
2022-11-03T01:48:26.309Z,14.30
2022-11-03T01:53:31.877Z,15.13
2022-11-03T01:58:38.484Z,15.70
2022-11-03T02:03:45.341Z,15.82
2022-11-03T02:08:53.286Z,15.40
2022-11-03T02:13:57.063Z,14.55
2022-11-03T02:19:02.338Z,15.48
2022-11-03T02:24:11.895Z,15.63
2022-11-03T02:29:17.138Z,15.30
2022-11-03T02:34:24.474Z,15.33
2022-11-03T02:39:32.557Z,15.57
2022-11-03T02:44:38.385Z,16.83
2022-11-03T02:49:48.411Z,15.93
2022-11-03T02:54:52.332Z,14.65
2022-11-03T03:00:00.568Z,16.23
2022-11-03T03:05:05.771Z,16.58
2022-11-03T03:10:11.985Z,12.63
2022-11-03T03:20:24.444Z,16.83
2022-11-03T03:25:30.862Z,17.33
2022-11-03T03:30:37.134Z,16.95
2022-11-03T03:35:43.610Z,17.23
2022-11-03T03:40:48.426Z,17.48
2022-11-03T03:45:54.462Z,17.20
2022-11-03T03:50:58.889Z,17.88
2022-11-03T03:56:05.880Z,17.77
2022-11-03T04:01:13.628Z,18.25
2022-11-03T04:06:17.488Z,18.05
2022-11-03T04:11:38.873Z,17.33
2022-11-03T04:17:01.290Z,17.13
2022-11-03T04:22:21.573Z,17.77
2022-11-03T04:27:30.574Z,17.02
2022-11-03T04:32:36.054Z,17.60
2022-11-03T04:37:42.543Z,18.63
2022-11-03T04:42:51.349Z,18.48
2022-11-03T04:47:56.706Z,18.20
2022-11-03T04:53:00.718Z,16.93
2022-11-03T04:58:11.662Z,17.00
2022-11-03T05:03:24.228Z,17.27
2022-11-03T05:08:28.023Z,17.85
2022-11-03T05:13:31.814Z,18.20
2022-11-03T05:18:38.107Z,18.60
2022-11-03T05:23:43.689Z,18.38
2022-11-03T05:28:49.771Z,18.60
2022-11-03T05:33:58.329Z,18.45
2022-11-03T05:39:19.112Z,19.48
2022-11-03T05:44:29.078Z,17.70
2022-11-03T05:49:34.266Z,17.45
2022-11-03T05:54:38.055Z,18.90
2022-11-03T05:59:41.977Z,19.67
2022-11-03T06:04:47.145Z,19.70
2022-11-03T06:09:51.014Z,19.25
2022-11-03T06:14:54.848Z,18.83
2022-11-03T06:20:01.746Z,19.80
2022-11-03T06:25:18.268Z,20.58
2022-11-03T06:30:26.264Z,20.90
2022-11-03T06:35:31.614Z,19.92
2022-11-03T06:40:36.405Z,21.80
2022-11-03T06:45:40.264Z,20.17
2022-11-03T06:50:45.451Z,21.35
2022-11-03T06:55:50.069Z,21.97
2022-11-03T07:00:58.913Z,21.40
2022-11-03T07:06:21.289Z,20.75
2022-11-03T07:11:26.671Z,20.80
2022-11-03T07:16:34.639Z,19.23
2022-11-03T07:21:42.408Z,21.80
2022-11-03T07:26:46.249Z,22.48
2022-11-03T07:31:50.933Z,21.25
2022-11-03T07:36:58.446Z,21.35
2022-11-03T07:42:04.482Z,21.48
2022-11-03T07:47:13.104Z,20.55
2022-11-03T07:52:22.127Z,20.60
2022-11-03T07:57:29.580Z,19.55
2022-11-03T08:02:35.447Z,20.30
2022-11-03T08:07:40.690Z,19.15
2022-11-03T08:12:44.519Z,19.20
2022-11-03T08:17:52.119Z,23.90
2022-11-03T08:23:24.047Z,17.75
2022-11-03T08:28:24.102Z,18.27
2022-11-03T08:38:38.565Z,16.17
2022-11-03T08:43:42.403Z,17.27
2022-11-03T08:48:46.597Z,15.63
2022-11-03T08:53:54.128Z,15.95
2022-11-03T08:58:57.947Z,16.33
2022-11-03T09:04:01.836Z,14.20
2022-11-03T09:14:30.872Z,13.60
2022-11-03T09:19:34.640Z,13.02
2022-11-03T09:24:39.806Z,13.15
2022-11-03T09:30:11.192Z,13.13
2022-11-03T09:35:09.061Z,12.05
2022-11-03T09:40:16.412Z,11.90
2022-11-03T09:45:20.278Z,10.82
2022-11-03T09:50:24.055Z,11.45
2022-11-03T09:55:29.264Z,12.10
2022-11-03T10:00:33.341Z,10.48
2022-11-03T10:05:37.251Z,10.23
2022-11-03T10:10:42.538Z,9.98
2022-11-03T10:15:46.303Z,10.00
2022-11-03T10:20:50.139Z,10.18
2022-11-03T10:26:05.267Z,11.20
2022-11-03T10:31:19.963Z,8.93
2022-11-03T10:36:25.972Z,9.68
2022-11-03T10:41:33.080Z,8.90
2022-11-03T10:46:49.813Z,8.75
2022-11-03T10:51:55.609Z,8.30
2022-11-03T10:57:00.836Z,7.63
2022-11-03T11:02:10.257Z,9.02
2022-11-03T11:07:20.923Z,8.82
2022-11-03T11:12:27.204Z,8.95
2022-11-03T11:17:48.149Z,9.52
2022-11-03T11:22:52.402Z,8.02
2022-11-03T11:27:59.161Z,9.52
2022-11-03T11:33:14.573Z,9.07
2022-11-03T11:38:56.471Z,8.07
2022-11-03T11:44:33.335Z,8.07
2022-11-03T11:49:38.496Z,7.35
2022-11-03T11:59:47.251Z,7.55
2022-11-03T12:05:03.102Z,7.63
2022-11-03T12:10:10.158Z,7.70
2022-11-03T12:15:52.156Z,8.40
2022-11-03T12:20:57.375Z,7.20
2022-11-03T12:26:02.557Z,7.88
2022-11-03T12:31:06.564Z,9.65
2022-11-03T12:36:11.836Z,7.63
2022-11-03T12:41:25.440Z,7.78
2022-11-03T12:46:29.456Z,8.25
2022-11-03T12:51:34.728Z,8.00
2022-11-03T12:56:38.498Z,8.52
2022-11-03T13:01:42.354Z,7.55
2022-11-03T13:06:47.599Z,7.80
2022-11-03T13:12:08.765Z,7.60
2022-11-03T13:17:12.524Z,8.27
2022-11-03T13:22:18.185Z,7.70
2022-11-03T13:32:25.485Z,7.60
2022-11-03T13:37:30.619Z,8.60
2022-11-03T13:42:34.381Z,8.15
2022-11-03T13:48:22.131Z,7.88
2022-11-03T14:09:15.767Z,9.40
2022-11-03T14:14:19.507Z,8.77
2022-11-03T14:19:30.740Z,9.07
2022-11-03T14:24:40.592Z,9.43
2022-11-03T14:29:44.685Z,11.00
2022-11-03T14:34:48.898Z,9.55
2022-11-03T14:39:54.420Z,9.25
2022-11-03T14:44:58.192Z,10.65
2022-11-03T14:50:02.261Z,9.35
2022-11-03T14:55:08.809Z,11.25
2022-11-03T15:00:13.393Z,10.60
2022-11-03T15:05:34.386Z,11.68
2022-11-03T15:10:43.237Z,10.55
2022-11-03T15:15:46.990Z,10.18
2022-11-03T15:20:50.746Z,10.38
2022-11-03T15:25:55.953Z,9.95
2022-11-03T15:30:59.787Z,9.63
2022-11-03T15:36:04.699Z,12.20
2022-11-03T15:41:19.634Z,10.30
2022-11-03T15:46:23.536Z,11.30
2022-11-03T15:51:27.291Z,11.32
2022-11-03T15:56:32.451Z,12.05
2022-11-03T16:01:36.556Z,10.77
2022-11-03T16:07:06.034Z,14.57
2022-11-03T16:12:05.745Z,13.32
2022-11-03T16:17:09.684Z,13.90
2022-11-03T16:22:13.432Z,13.93
2022-11-03T16:27:19.012Z,12.88
2022-11-03T16:32:22.875Z,12.45
2022-11-03T16:37:29.328Z,11.52
2022-11-03T16:42:38.528Z,12.65
2022-11-03T16:47:42.465Z,12.65
2022-11-03T16:52:46.582Z,14.50
2022-11-03T16:57:51.758Z,15.10
2022-11-03T17:02:55.546Z,16.30
2022-11-03T17:07:59.273Z,17.23
2022-11-03T17:13:07.723Z,15.82
2022-11-03T17:18:13.881Z,17.15
2022-11-03T17:23:17.729Z,17.27
2022-11-03T17:28:22.932Z,18.55
2022-11-03T17:33:26.674Z,24.87
2022-11-03T17:38:30.516Z,28.15
2022-11-03T17:43:38.180Z,29.90
2022-11-03T17:48:41.972Z,30.15
2022-11-03T17:53:46.728Z,29.08
2022-11-03T17:58:51.987Z,27.50
2022-11-03T18:03:55.828Z,29.33
2022-11-03T18:08:59.673Z,27.88
2022-11-03T18:14:05.051Z,26.80
2022-11-03T18:19:11.421Z,19.57
2022-11-03T18:24:17.072Z,24.83
2022-11-03T18:29:22.309Z,24.20
2022-11-03T18:34:28.244Z,25.90
2022-11-03T18:39:32.059Z,27.40
2022-11-03T18:44:37.387Z,26.15
2022-11-03T18:49:41.247Z,28.47
2022-11-03T18:54:46.883Z,26.27
2022-11-03T18:59:52.267Z,24.75
2022-11-03T19:04:56.103Z,24.97
2022-11-03T19:10:00.436Z,27.25
2022-11-03T19:15:06.496Z,28.48
2022-11-03T19:20:14.139Z,27.70
2022-11-03T19:25:18.808Z,26.08
2022-11-03T19:30:24.016Z,25.33
2022-11-03T19:35:31.003Z,26.08
2022-11-03T19:40:34.975Z,25.10
2022-11-03T19:45:40.416Z,23.08
2022-11-03T19:50:44.318Z,22.80
2022-11-03T19:55:48.501Z,26.52
2022-11-03T20:00:54.277Z,28.70
2022-11-03T20:05:58.734Z,35.08
2022-11-03T20:11:02.640Z,31.67
2022-11-03T20:16:12.324Z,28.50
2022-11-03T20:21:17.213Z,26.75
2022-11-03T20:26:22.863Z,24.90
2022-11-03T20:31:28.046Z,23.27
2022-11-03T20:36:33.383Z,23.08
2022-11-03T20:41:37.228Z,20.13
2022-11-03T20:46:42.956Z,22.30
2022-11-03T20:51:47.316Z,22.05
2022-11-03T20:56:51.202Z,21.85
2022-11-03T21:01:57.360Z,20.45
2022-11-03T21:12:05.234Z,23.27
2022-11-03T21:17:31.836Z,23.55
2022-11-03T21:27:57.351Z,23.95
2022-11-03T21:33:02.613Z,22.17
2022-11-03T21:38:06.979Z,23.15
2022-11-03T21:43:29.638Z,21.30
2022-11-03T21:48:52.668Z,21.20
2022-11-03T21:53:56.489Z,20.42
2022-11-03T21:59:00.305Z,24.17
2022-11-03T22:04:06.134Z,23.98
2022-11-03T22:09:09.982Z,23.35
2022-11-03T22:14:14.086Z,24.85
2022-11-03T22:19:38.324Z,23.83
2022-11-03T22:25:00.020Z,24.73
2022-11-03T22:30:21.510Z,24.30
2022-11-03T22:35:44.497Z,23.20
2022-11-03T22:41:06.599Z,23.38
2022-11-03T22:46:11.460Z,23.75
2022-11-03T22:51:17.842Z,23.45
2022-11-03T22:56:22.188Z,23.98
2022-11-03T23:01:27.876Z,23.00
2022-11-03T23:06:37.046Z,22.83
2022-11-03T23:11:40.876Z,23.80
2022-11-03T23:16:46.105Z,24.23
2022-11-03T23:21:52.294Z,23.70
2022-11-03T23:26:56.252Z,22.75
2022-11-03T23:32:00.585Z,23.02
2022-11-03T23:37:05.805Z,23.52
2022-11-03T23:42:09.694Z,16.90
2022-11-03T23:47:33.074Z,23.70
2022-11-03T23:52:38.397Z,23.63
2022-11-03T23:57:59.550Z,23.13
